River Bank, California
Current Conditions -  °F | °C
As of 2:53 PM on Saturday 20 Dec 2014 (Local Time) from KSAC Reporting Station
Overcast Overcast  
Wind Chill: 57°   Ceiling: 8000
Heat Index: 57°   Visibility: 10mi
Dew Point: 52°   Wind: 8mph
Humidity: 83%   Direction: 130°SE
Pressure: 30.19"   Gusts: NA
Location:  38.5921°N, 121.545°W
Report Text: KSAC 202253Z AUTO 13007KT 10SM SCT010 OVC080 14/11 A3019 RMK AO2 SLP223 T01390111 TSNO
Loading
Personal Weather Stations






























Interactive Weather Map New forecast layout! Learn more

10-Day Weather Forecast

Advertisements
Track Severe Weather on mobile